Time;durP1;ratioP1;P1;durP2;ratioP2;P2;SDS_P1;SDS_P2;PMS_P1;PMS_P2;Temp;Humidity;BMP_temperature;BMP_pressure;BME280_temperature;BME280_humidity;BME280_pressure;Samples;Min_cycle;Max_cycle;Signal;HPM_P1;HPM_P2
2022/05/30 00:01:56;;;;;;;5.07;1.25;;;10.00;78.50;;;;;;5052199;28;20153;-44
2022/05/30 00:04:22;;;;;;;3.60;1.00;;;10.00;78.30;;;;;;5050235;28;20050;-45
2022/05/30 00:06:47;;;;;;;3.13;0.90;;;10.00;78.40;;;;;;5052352;28;20033;-45
2022/05/30 00:09:13;;;;;;;6.85;1.10;;;9.90;77.80;;;;;;5050358;28;20047;-44
2022/05/30 00:11:40;;;;;;;5.38;1.00;;;9.90;77.60;;;;;;5038672;28;20033;-44
2022/05/30 00:14:06;;;;;;;3.70;1.17;;;9.90;77.70;;;;;;5031016;28;20664;-44
2022/05/30 00:16:31;;;;;;;5.03;0.98;;;9.90;77.30;;;;;;5031592;28;20029;-44
2022/05/30 00:18:57;;;;;;;3.90;0.93;;;9.90;77.60;;;;;;5030539;28;20021;-44
2022/05/30 00:21:24;;;;;;;5.07;1.40;;;9.90;77.90;;;;;;5034939;28;20044;-44
2022/05/30 00:23:53;;;;;;;4.82;1.25;;;9.80;78.20;;;;;;5051671;28;20028;-45
2022/05/30 00:26:20;;;;;;;9.45;1.38;;;9.80;78.50;;;;;;5038250;28;20388;-47
2022/05/30 00:28:46;;;;;;;7.57;0.98;;;9.80;78.60;;;;;;5031801;28;20104;-44
2022/05/30 00:31:14;;;;;;;8.77;1.52;;;9.70;79.00;;;;;;5030844;28;21853;-45
2022/05/30 00:33:42;;;;;;;7.75;1.60;;;9.70;79.20;;;;;;5031925;28;20113;-46
2022/05/30 00:36:10;;;;;;;5.93;1.13;;;9.60;79.10;;;;;;5030554;28;20450;-46
2022/05/30 00:38:36;;;;;;;5.38;1.25;;;9.60;78.80;;;;;;5030758;28;20025;-47
2022/05/30 00:41:02;;;;;;;7.43;1.00;;;9.60;78.60;;;;;;5045897;28;20043;-46
2022/05/30 00:43:34;;;;;;;4.90;0.90;;;9.50;78.40;;;;;;5050550;28;20091;-45
2022/05/30 00:46:03;;;;;;;5.72;1.33;;;9.50;78.10;;;;;;5031931;28;20064;-45
2022/05/30 00:48:41;;;;;;;6.15;1.63;;;9.50;78.50;;;;;;5030468;28;20065;-46
2022/05/30 00:51:14;;;;;;;5.82;1.60;;;9.50;78.40;;;;;;5041303;28;20124;-43
2022/05/30 00:53:42;;;;;;;5.45;1.65;;;9.40;78.60;;;;;;5031048;28;20213;-45
2022/05/30 00:56:10;;;;;;;5.65;1.48;;;9.40;78.80;;;;;;5030369;28;20022;-45
2022/05/30 00:58:42;;;;;;;4.70;1.20;;;9.40;79.10;;;;;;5042713;28;20419;-45
2022/05/30 01:01:07;;;;;;;5.55;1.45;;;9.40;79.40;;;;;;5038939;28;20036;-44
2022/05/30 01:06:32;;;;;;;5.03;1.20;;;9.40;79.90;;;;;;5039379;28;20033;-45
2022/05/30 01:09:04;;;;;;;6.75;1.23;;;9.30;79.90;;;;;;5029621;28;20176;-47
2022/05/30 01:11:52;;;;;;;4.43;1.05;;;9.20;80.30;;;;;;5037797;28;20112;-45
2022/05/30 01:14:18;;;;;;;7.57;1.27;;;9.10;80.50;;;;;;5035785;28;20029;-45
2022/05/30 01:16:44;;;;;;;5.80;1.15;;;9.00;80.10;;;;;;5040649;28;20021;-45
2022/05/30 01:19:27;;;;;;;5.00;1.02;;;8.90;80.60;;;;;;5047942;28;20036;-43
2022/05/30 01:22:05;;;;;;;4.40;1.20;;;8.80;80.60;;;;;;5031250;28;20037;-44
2022/05/30 01:25:10;;;;;;;4.50;1.17;;;8.80;80.60;;;;;;5010608;28;20042;-45
2022/05/30 01:28:01;;;;;;;3.08;0.90;;;8.70;81.00;;;;;;5029526;28;20453;-45
2022/05/30 01:30:27;;;;;;;4.43;1.27;;;8.60;81.20;;;;;;5032716;28;20446;-43
2022/05/30 01:32:57;;;;;;;5.60;1.80;;;8.60;81.40;;;;;;5044099;28;20122;-44
2022/05/30 01:35:27;;;;;;;4.47;1.25;;;8.60;81.70;;;;;;5028620;28;20033;-48
2022/05/30 01:37:55;;;;;;;6.35;1.98;;;8.60;81.50;;;;;;5031095;28;20072;-44
2022/05/30 01:40:20;;;;;;;10.77;2.20;;;8.70;81.50;;;;;;5035919;28;20037;-44
2022/05/30 01:42:46;;;;;;;6.05;1.48;;;8.60;81.40;;;;;;5028485;28;20465;-44
2022/05/30 01:45:12;;;;;;;6.18;1.60;;;8.60;82.00;;;;;;5028205;28;20116;-46
2022/05/30 01:47:37;;;;;;;10.38;2.75;;;8.70;82.00;;;;;;5031189;28;20041;-44
2022/05/30 01:50:04;;;;;;;6.30;1.30;;;8.70;82.00;;;;;;5028199;28;20496;-45
2022/05/30 01:52:30;;;;;;;9.65;1.40;;;8.70;82.10;;;;;;5028990;28;20041;-45
2022/05/30 01:54:55;;;;;;;5.68;1.60;;;8.70;82.10;;;;;;5045644;28;20029;-48
2022/05/30 01:57:21;;;;;;;5.20;1.23;;;8.70;82.70;;;;;;5033490;28;20036;-45
2022/05/30 01:59:47;;;;;;;7.80;2.00;;;8.70;82.90;;;;;;5043827;28;20031;-56
2022/05/30 02:02:12;;;;;;;6.05;2.30;;;8.70;83.60;;;;;;5039200;28;20040;-60
2022/05/30 02:04:38;;;;;;;5.28;1.70;;;8.70;84.20;;;;;;5049894;28;20489;-62
2022/05/30 02:07:04;;;;;;;4.65;2.15;;;8.70;84.60;;;;;;5047262;28;20051;-62
2022/05/30 02:09:30;;;;;;;6.85;2.67;;;8.80;85.00;;;;;;5031698;28;20611;-59
2022/05/30 02:11:56;;;;;;;7.70;1.92;;;8.80;85.30;;;;;;5028054;28;20036;-59
2022/05/30 02:14:22;;;;;;;5.07;1.55;;;8.80;85.60;;;;;;5028945;28;20438;-59
2022/05/30 02:17:04;;;;;;;6.05;1.20;;;8.80;85.80;;;;;;5029457;28;20426;-56
2022/05/30 02:19:33;;;;;;;5.45;1.95;;;8.80;85.70;;;;;;5029437;28;20044;-56
2022/05/30 02:22:01;;;;;;;6.05;1.77;;;8.90;85.90;;;;;;5030484;28;20025;-56
2022/05/30 02:24:27;;;;;;;6.93;2.30;;;8.90;86.10;;;;;;5027692;28;20026;-56
2022/05/30 02:26:55;;;;;;;5.60;2.55;;;8.90;86.20;;;;;;5029306;28;20454;-55
2022/05/30 02:29:21;;;;;;;8.00;2.40;;;8.90;86.30;;;;;;5027997;28;20465;-53
2022/05/30 02:31:46;;;;;;;8.50;1.92;;;8.80;86.40;;;;;;5048693;28;20080;-53
2022/05/30 02:36:56;;;;;;;6.30;2.20;;;8.80;86.50;;;;;;5037954;28;20087;-49
2022/05/30 02:39:24;;;;;;;8.75;1.70;;;8.80;86.60;;;;;;5029239;28;20030;-53
2022/05/30 02:41:50;;;;;;;7.25;2.45;;;8.80;86.60;;;;;;5025073;28;20025;-50
2022/05/30 02:44:18;;;;;;;6.20;1.83;;;8.70;86.60;;;;;;5015757;28;20029;-52
2022/05/30 02:46:54;;;;;;;5.18;1.67;;;8.70;86.70;;;;;;5033989;28;20030;-50
2022/05/30 02:49:20;;;;;;;6.47;2.25;;;8.60;86.60;;;;;;5049219;28;20461;-49
2022/05/30 02:51:48;;;;;;;5.55;1.65;;;8.60;86.60;;;;;;5032236;28;20068;-49
2022/05/30 02:54:14;;;;;;;7.05;1.90;;;8.50;86.60;;;;;;5028659;28;20413;-51
2022/05/30 02:56:41;;;;;;;7.25;2.50;;;8.50;86.60;;;;;;5027055;28;20057;-49
2022/05/30 02:59:07;;;;;;;4.75;1.65;;;8.40;86.60;;;;;;5030902;28;20099;-49
2022/05/30 03:01:36;;;;;;;7.25;2.25;;;8.30;86.60;;;;;;5032647;28;20029;-49
2022/05/30 03:04:03;;;;;;;2.88;1.52;;;8.30;86.60;;;;;;5030109;28;20120;-49
2022/05/30 03:06:29;;;;;;;3.38;1.50;;;8.20;86.70;;;;;;5030863;28;20280;-50
2022/05/30 03:08:56;;;;;;;8.77;2.70;;;8.20;86.70;;;;;;5032283;28;20037;-53
2022/05/30 03:11:22;;;;;;;6.20;2.70;;;8.20;86.90;;;;;;5032629;28;20041;-54
2022/05/30 03:13:48;;;;;;;5.57;1.90;;;8.10;87.00;;;;;;5031967;28;20025;-50
2022/05/30 03:16:14;;;;;;;4.03;1.90;;;8.10;87.20;;;;;;5032219;28;20409;-48
2022/05/30 03:18:40;;;;;;;5.43;2.55;;;8.10;87.40;;;;;;5031579;28;20040;-49
2022/05/30 03:21:05;;;;;;;7.13;2.30;;;8.10;87.40;;;;;;5030344;28;20120;-51
2022/05/30 03:23:31;;;;;;;7.63;2.50;;;8.00;87.30;;;;;;5032910;28;20033;-50
2022/05/30 03:25:57;;;;;;;4.60;2.20;;;8.00;87.30;;;;;;5031636;28;20087;-51
2022/05/30 03:28:23;;;;;;;8.82;3.47;;;8.00;87.40;;;;;;5048783;28;20025;-49
2022/05/30 03:30:48;;;;;;;6.85;2.55;;;8.00;87.50;;;;;;5048162;28;20037;-50
2022/05/30 03:33:14;;;;;;;5.55;2.00;;;8.00;87.70;;;;;;5052615;28;20044;-52
2022/05/30 03:35:40;;;;;;;4.80;1.95;;;8.00;87.70;;;;;;5040966;28;20086;-48
2022/05/30 03:38:07;;;;;;;6.90;2.20;;;8.10;87.90;;;;;;5044934;28;20036;-50
2022/05/30 03:40:33;;;;;;;10.77;2.65;;;8.20;87.90;;;;;;5032573;28;20025;-50
2022/05/30 03:42:58;;;;;;;4.45;1.90;;;8.20;88.00;;;;;;5032123;28;20040;-48
2022/05/30 03:45:24;;;;;;;6.25;1.88;;;8.20;87.90;;;;;;5030266;28;20021;-49
2022/05/30 03:47:50;;;;;;;4.53;2.30;;;8.30;88.00;;;;;;5031274;28;20095;-48
2022/05/30 03:50:24;;;;;;;3.85;2.03;;;8.30;87.90;;;;;;5035210;28;20035;-47
2022/05/30 03:52:52;;;;;;;6.10;2.35;;;8.30;87.90;;;;;;5050358;28;20041;-48
2022/05/30 03:55:22;;;;;;;7.45;1.98;;;8.40;87.80;;;;;;5044628;28;20029;-48
2022/05/30 03:57:47;;;;;;;8.75;2.78;;;8.40;87.80;;;;;;5046858;28;20021;-48
2022/05/30 04:00:17;;;;;;;7.38;2.05;;;8.40;87.90;;;;;;5029852;28;20763;-48
2022/05/30 04:02:47;;;;;;;5.45;2.00;;;8.40;87.80;;;;;;5044525;28;20049;-49
2022/05/30 04:05:13;;;;;;;;;;;8.40;87.80;;;;;;5042445;28;20502;-47
2022/05/30 04:07:40;;;;;;;4.82;1.80;;;8.40;88.00;;;;;;5050081;28;19947;-49
2022/05/30 04:10:07;;;;;;;9.93;3.03;;;8.40;87.90;;;;;;5035896;28;20088;-51
2022/05/30 04:12:32;;;;;;;5.25;2.33;;;8.40;87.90;;;;;;5050907;28;20041;-47
2022/05/30 04:15:00;;;;;;;6.72;2.10;;;8.40;87.80;;;;;;5050864;28;20027;-47
2022/05/30 04:17:31;;;;;;;4.82;1.90;;;8.50;87.80;;;;;;5048342;28;20086;-48
2022/05/30 04:19:57;;;;;;;7.65;2.42;;;8.50;87.70;;;;;;5015918;28;20524;-48
2022/05/30 04:22:22;;;;;;;3.95;1.98;;;8.50;87.60;;;;;;5026810;28;20041;-48
2022/05/30 04:24:48;;;;;;;3.67;1.75;;;8.50;87.50;;;;;;5043970;28;20041;-47
2022/05/30 04:27:13;;;;;;;5.18;2.05;;;8.50;87.50;;;;;;5030708;28;20127;-48
2022/05/30 04:29:39;;;;;;;5.45;1.90;;;8.50;87.40;;;;;;5035637;28;20032;-46
2022/05/30 04:32:06;;;;;;;5.05;1.85;;;8.40;87.40;;;;;;5051049;28;20056;-48
2022/05/30 04:34:32;;;;;;;8.75;3.20;;;8.40;87.30;;;;;;5048574;28;20044;-47
2022/05/30 04:36:58;;;;;;;3.58;1.63;;;8.40;87.30;;;;;;5033397;28;20041;-47
2022/05/30 04:39:24;;;;;;;3.40;1.60;;;8.40;87.30;;;;;;5028457;28;20040;-51
2022/05/30 04:41:50;;;;;;;6.47;2.17;;;8.40;87.30;;;;;;5038943;28;20025;-47
2022/05/30 04:44:18;;;;;;;7.95;2.25;;;8.40;87.20;;;;;;5031922;28;20040;-48
2022/05/30 04:46:51;;;;;;;4.15;1.67;;;8.40;87.00;;;;;;5050489;28;20043;-47
2022/05/30 04:49:17;;;;;;;6.80;1.92;;;8.50;87.30;;;;;;5048336;28;20033;-46
2022/05/30 04:51:45;;;;;;;3.23;1.50;;;8.50;87.20;;;;;;5005794;28;1101047;-47
2022/05/30 04:54:10;;;;;;;5.25;1.83;;;8.50;87.10;;;;;;5030112;28;20424;-46
2022/05/30 04:56:36;;;;;;;4.03;2.05;;;8.60;87.10;;;;;;5044101;28;20041;-46
2022/05/30 04:59:02;;;;;;;5.05;2.05;;;8.70;87.10;;;;;;5029989;28;20076;-49
2022/05/30 05:01:30;;;;;;;4.43;2.00;;;8.80;87.10;;;;;;5047312;28;20049;-47
2022/05/30 05:03:55;;;;;;;4.53;1.63;;;8.80;86.70;;;;;;5038864;28;20033;-50
2022/05/30 05:06:22;;;;;;;3.90;1.52;;;8.90;86.70;;;;;;5034382;28;20066;-46
2022/05/30 05:08:50;;;;;;;3.22;1.65;;;9.00;86.70;;;;;;5033618;28;20033;-47
2022/05/30 05:11:30;;;;;;;5.40;2.30;;;9.20;86.80;;;;;;5028736;28;20458;-45
2022/05/30 05:13:56;;;;;;;;;;;9.40;86.80;;;;;;5038712;28;20366;-47
2022/05/30 05:16:25;;;;;;;3.47;2.03;;;9.60;86.50;;;;;;5048167;28;19908;-44
2022/05/30 05:18:52;;;;;;;5.37;2.90;;;9.70;86.10;;;;;;5049978;28;20037;-44
2022/05/30 05:21:32;;;;;;;8.07;1.77;;;9.90;86.00;;;;;;5046074;28;20029;-46
2022/05/30 05:23:58;;;;;;;5.03;1.60;;;10.00;86.10;;;;;;5029986;28;20112;-44
2022/05/30 05:26:24;;;;;;;5.50;1.80;;;10.00;85.80;;;;;;5032468;28;20057;-44
2022/05/30 05:28:50;;;;;;;7.63;1.90;;;10.00;85.40;;;;;;5046022;28;20684;-44
2022/05/30 05:31:32;;;;;;;4.20;1.60;;;10.00;85.40;;;;;;5047216;28;20040;-44
2022/05/30 05:33:59;;;;;;;3.67;1.92;;;10.00;85.50;;;;;;5047150;28;20667;-43
2022/05/30 05:36:28;;;;;;;4.93;2.00;;;10.00;85.40;;;;;;5049983;28;20048;-45
2022/05/30 05:38:53;;;;;;;4.22;1.42;;;9.90;85.40;;;;;;5046338;28;20021;-45
2022/05/30 05:41:20;;;;;;;7.78;3.40;;;9.90;85.70;;;;;;5037546;28;20047;-43
2022/05/30 05:43:46;;;;;;;5.75;1.90;;;10.00;85.80;;;;;;5040689;28;20576;-43
2022/05/30 05:46:14;;;;;;;7.00;1.67;;;9.90;85.80;;;;;;5047064;28;20109;-43
2022/05/30 05:48:39;;;;;;;7.22;1.73;;;10.00;86.20;;;;;;5049807;28;20032;-42
2022/05/30 05:51:05;;;;;;;8.60;1.67;;;9.90;85.60;;;;;;5047824;28;20029;-43
2022/05/30 05:53:30;;;;;;;3.92;1.50;;;9.90;86.00;;;;;;5049764;28;20103;-43
2022/05/30 05:55:58;;;;;;;4.60;1.27;;;9.90;86.00;;;;;;5046052;28;20035;-42
2022/05/30 05:58:24;;;;;;;8.05;2.05;;;9.90;86.10;;;;;;5042992;28;20620;-43
2022/05/30 06:00:52;;;;;;;7.95;1.77;;;9.90;86.20;;;;;;5033445;28;20124;-43
2022/05/30 06:03:18;;;;;;;4.60;1.48;;;9.90;86.30;;;;;;5025212;28;20056;-43
2022/05/30 06:05:43;;;;;;;3.63;1.40;;;10.00;86.40;;;;;;5025228;28;20498;-45
2022/05/30 06:08:10;;;;;;;4.55;1.60;;;10.10;86.00;;;;;;5025994;28;20108;-44
2022/05/30 06:11:04;;;;;;;8.90;2.10;;;10.10;85.50;;;;;;5025161;28;20033;-44
2022/05/30 06:13:21;;;;;;;1.83;0.80;;;10.20;85.60;;;;;;5027672;28;20359;-44
2022/05/30 06:15:47;;;;;;;8.60;1.27;;;10.30;85.10;;;;;;5029790;28;20028;-43
2022/05/30 06:18:13;;;;;;;4.13;1.00;;;10.40;84.80;;;;;;5028254;28;20103;-45
2022/05/30 06:20:41;;;;;;;3.10;1.00;;;10.40;84.20;;;;;;5028160;28;20048;-44
2022/05/30 06:23:07;;;;;;;3.10;1.10;;;10.40;83.90;;;;;;5025892;28;20031;-44
2022/05/30 06:25:33;;;;;;;5.80;1.08;;;10.40;83.40;;;;;;5024617;28;20026;-43
2022/05/30 06:27:58;;;;;;;2.80;1.00;;;10.50;83.50;;;;;;5025570;28;20045;-45
2022/05/30 06:30:24;;;;;;;3.35;0.90;;;10.60;83.60;;;;;;5027053;28;20025;-43
2022/05/30 06:32:50;;;;;;;4.45;1.40;;;10.70;83.10;;;;;;5021229;28;20048;-46
2022/05/30 06:35:15;;;;;;;2.47;0.60;;;10.80;83.60;;;;;;5026211;28;20101;-42
2022/05/30 06:37:41;;;;;;;2.78;0.65;;;10.80;82.70;;;;;;5026785;28;20065;-43
2022/05/30 06:40:07;;;;;;;5.60;1.30;;;10.90;82.70;;;;;;5029113;28;20033;-44
2022/05/30 06:42:32;;;;;;;3.47;1.00;;;10.90;82.40;;;;;;5031629;28;20064;-45
2022/05/30 06:44:58;;;;;;;3.08;1.10;;;10.90;82.20;;;;;;5024986;28;20669;-43
2022/05/30 06:47:24;;;;;;;3.17;1.15;;;11.10;82.20;;;;;;5022791;28;20339;-43
2022/05/30 06:49:51;;;;;;;2.50;0.90;;;11.10;81.30;;;;;;5024148;28;20079;-42
2022/05/30 06:52:16;;;;;;;2.45;0.98;;;11.20;81.30;;;;;;5027485;28;20132;-43
2022/05/30 06:54:42;;;;;;;4.95;0.90;;;11.30;81.00;;;;;;5028236;28;20830;-45
2022/05/30 06:59:52;;;;;;;4.63;1.77;;;11.60;80.70;;;;;;5025563;28;20037;-43
2022/05/30 07:02:18;;;;;;;4.05;0.90;;;11.70;80.20;;;;;;5023035;28;20037;-43
2022/05/30 07:04:43;;;;;;;2.22;0.93;;;11.90;80.50;;;;;;5026065;28;20044;-43
2022/05/30 07:07:09;;;;;;;5.10;0.95;;;12.00;79.40;;;;;;5024307;28;20090;-43
2022/05/30 07:09:35;;;;;;;4.95;1.00;;;12.20;79.80;;;;;;5023692;28;20057;-45
2022/05/30 07:12:01;;;;;;;5.13;1.45;;;12.30;79.10;;;;;;5025936;28;20030;-47
2022/05/30 07:14:27;;;;;;;3.83;0.88;;;12.30;78.90;;;;;;5025185;28;20112;-44
2022/05/30 07:16:55;;;;;;;4.35;1.20;;;12.30;78.20;;;;;;5029014;28;20055;-43
2022/05/30 07:19:21;;;;;;;3.45;0.98;;;12.30;78.50;;;;;;5025819;28;20029;-45
2022/05/30 07:21:46;;;;;;;2.50;1.10;;;12.20;77.40;;;;;;5029149;28;20396;-44
2022/05/30 07:24:12;;;;;;;3.78;1.05;;;12.40;78.10;;;;;;5027151;28;20095;-44
2022/05/30 07:26:40;;;;;;;4.30;1.10;;;12.60;77.10;;;;;;5024047;28;20108;-46
2022/05/30 07:29:07;;;;;;;4.35;1.10;;;12.80;76.20;;;;;;5024605;28;20034;-44
2022/05/30 07:31:34;;;;;;;4.40;1.65;;;12.90;75.00;;;;;;5024194;28;20036;-43
2022/05/30 07:34:00;;;;;;;3.60;1.17;;;12.90;74.00;;;;;;5024153;28;20121;-43
2022/05/30 07:36:30;;;;;;;3.20;0.75;;;12.90;73.30;;;;;;5027316;28;20104;-43
2022/05/30 07:38:56;;;;;;;3.17;1.13;;;13.20;73.10;;;;;;5025496;28;20369;-44
2022/05/30 07:41:24;;;;;;;4.78;0.85;;;13.40;71.90;;;;;;5024795;28;20108;-46
2022/05/30 07:43:50;;;;;;;2.97;0.77;;;13.50;70.60;;;;;;5028061;28;20033;-44
2022/05/30 07:46:18;;;;;;;3.55;0.70;;;13.70;71.00;;;;;;5032507;28;20427;-44
2022/05/30 07:48:47;;;;;;;4.15;0.77;;;13.60;69.60;;;;;;5028860;28;20025;-44
2022/05/30 07:51:15;;;;;;;6.47;2.20;;;14.00;71.00;;;;;;5046717;28;20358;-45
2022/05/30 07:53:44;;;;;;;3.65;0.80;;;14.20;67.70;;;;;;5044240;28;20120;-45
2022/05/30 07:56:15;;;;;;;4.53;1.27;;;14.60;68.40;;;;;;5048984;28;20017;-45
2022/05/30 07:58:41;;;;;;;3.78;0.63;;;14.90;67.40;;;;;;5040303;28;20045;-45
2022/05/30 08:01:13;;;;;;;2.05;0.85;;;14.70;65.60;;;;;;5023855;28;20034;-44
2022/05/30 08:03:42;;;;;;;3.90;0.80;;;14.70;66.10;;;;;;5049666;28;20033;-45
2022/05/30 08:06:23;;;;;;;2.65;0.60;;;14.80;64.50;;;;;;5036941;28;20079;-44
2022/05/30 08:08:50;;;;;;;1.65;0.82;;;15.00;66.70;;;;;;5014535;28;20882;-45
2022/05/30 08:11:17;;;;;;;1.92;0.55;;;15.20;63.10;;;;;;5031397;28;20330;-44
2022/05/30 08:13:45;;;;;;;2.72;0.90;;;15.30;65.10;;;;;;5050275;28;20070;-46
2022/05/30 08:16:12;;;;;;;5.93;1.20;;;15.70;65.20;;;;;;5044696;28;20450;-45
2022/05/30 08:18:37;;;;;;;3.75;1.27;;;15.70;62.90;;;;;;5031337;28;20398;-45
2022/05/30 08:21:04;;;;;;;4.70;0.80;;;15.80;63.20;;;;;;5022236;28;20045;-48
2022/05/30 08:23:31;;;;;;;2.90;0.65;;;16.40;62.30;;;;;;5021352;28;20037;-44
2022/05/30 08:25:57;;;;;;;4.03;0.73;;;16.90;59.70;;;;;;5034350;28;20038;-46
2022/05/30 08:28:23;;;;;;;3.95;1.10;;;16.90;58.60;;;;;;5025349;28;20072;-44
2022/05/30 08:30:48;;;;;;;3.75;0.80;;;17.40;60.80;;;;;;5028614;28;20040;-45
2022/05/30 08:33:16;;;;;;;3.88;0.98;;;18.20;57.30;;;;;;5029255;28;20038;-45
2022/05/30 08:35:45;;;;;;;1.45;0.52;;;17.90;55.90;;;;;;5029756;28;20040;-46
2022/05/30 08:38:11;;;;;;;2.55;0.70;;;17.70;56.20;;;;;;5030185;28;20366;-46
2022/05/30 08:43:39;;;;;;;4.78;0.93;;;16.30;59.60;;;;;;5022636;28;20749;-45
2022/05/30 08:46:27;;;;;;;5.25;1.02;;;15.10;62.50;;;;;;5024173;28;20033;-45
2022/05/30 08:49:22;;;;;;;2.92;0.73;;;14.70;64.60;;;;;;5015099;28;20033;-45
2022/05/30 08:52:25;;;;;;;2.20;0.73;;;13.90;66.90;;;;;;5046882;28;20033;-44
2022/05/30 08:55:15;;;;;;;2.92;0.90;;;13.80;67.30;;;;;;5049225;28;20344;-46
2022/05/30 08:57:44;;;;;;;;;;;13.60;68.00;;;;;;5018656;28;20033;-45
2022/05/30 09:00:27;;;;;;;2.53;0.90;;;13.50;68.80;;;;;;5032571;28;20015;-44
2022/05/30 09:03:17;;;;;;;15.48;1.13;;;13.90;68.10;;;;;;5049207;28;20033;-43
2022/05/30 09:06:00;;;;;;;1.45;0.68;;;14.30;62.80;;;;;;5034902;28;20030;-44
2022/05/30 09:08:33;;;;;;;1.98;0.63;;;14.80;61.90;;;;;;5026282;28;20104;-46
2022/05/30 09:11:22;;;;;;;1.30;0.47;;;15.60;61.80;;;;;;5026098;28;20041;-44
2022/05/30 09:13:50;;;;;;;3.83;0.90;;;16.80;61.40;;;;;;5027332;28;20075;-45
2022/05/30 09:16:37;;;;;;;2.65;0.60;;;17.90;53.10;;;;;;5019869;28;20050;-44
2022/05/30 09:19:08;;;;;;;2.00;0.40;;;17.60;52.00;;;;;;5035681;28;20053;-46
2022/05/30 09:21:39;;;;;;;1.85;0.63;;;16.40;56.20;;;;;;5010541;28;20312;-45
2022/05/30 09:24:06;;;;;;;3.55;0.63;;;15.30;56.80;;;;;;5030233;28;20037;-45
2022/05/30 09:26:40;;;;;;;2.65;0.88;;;14.40;59.40;;;;;;5027228;28;20037;-45
2022/05/30 09:29:17;;;;;;;1.73;0.40;;;13.90;62.50;;;;;;5026939;28;20046;-44
2022/05/30 09:31:57;;;;;;;1.88;0.80;;;13.60;62.90;;;;;;5027419;28;20056;-45
2022/05/30 09:34:51;;;;;;;2.13;0.50;;;13.50;65.30;;;;;;5033367;28;20480;-46
2022/05/30 09:37:38;;;;;;;4.30;0.90;;;13.40;66.50;;;;;;5036160;28;20064;-44
2022/05/30 09:40:47;;;;;;;1.75;0.70;;;13.30;67.20;;;;;;5013455;28;20503;-46
2022/05/30 09:43:24;;;;;;;2.60;0.90;;;13.30;65.60;;;;;;5040665;28;20100;-45
2022/05/30 09:45:50;;;;;;;3.88;0.55;;;13.30;65.60;;;;;;5027189;28;20324;-44
2022/05/30 09:48:20;;;;;;;3.22;0.65;;;13.40;65.20;;;;;;5027151;28;20032;-45
2022/05/30 09:50:52;;;;;;;2.88;0.52;;;13.60;63.50;;;;;;5028099;28;20034;-46
2022/05/30 09:53:51;;;;;;;2.83;0.82;;;14.10;64.10;;;;;;5021217;28;20041;-45
2022/05/30 09:56:20;;;;;;;3.13;0.63;;;14.70;66.40;;;;;;5005787;28;20048;-44
2022/05/30 09:59:18;;;;;;;4.07;1.23;;;14.50;64.70;;;;;;5025314;28;20057;-45
2022/05/30 10:01:52;;;;;;;2.70;1.23;;;14.00;64.80;;;;;;5019872;28;20068;-44
2022/05/30 10:04:33;;;;;;;6.18;0.98;;;13.50;66.30;;;;;;5027674;28;20143;-44
2022/05/30 10:07:13;;;;;;;4.40;1.05;;;13.00;68.30;;;;;;5026022;28;20072;-45
2022/05/30 10:10:01;;;;;;;7.18;0.95;;;12.70;69.60;;;;;;5024684;28;20053;-46
2022/05/30 10:12:42;;;;;;;3.10;1.20;;;12.50;70.50;;;;;;5016306;28;20113;-45
2022/05/30 10:15:35;;;;;;;5.45;1.17;;;12.50;71.20;;;;;;5028325;28;20105;-45
2022/05/30 10:18:32;;;;;;;4.88;1.60;;;12.40;71.60;;;;;;5021512;28;20171;-45
2022/05/30 10:21:32;;;;;;;5.25;0.88;;;12.40;72.30;;;;;;5018748;28;20033;-45
2022/05/30 10:30:20;;;;;;;4.07;0.85;;;12.80;69.90;;;;;;5026818;28;20048;-44
2022/05/30 10:33:23;;;;;;;3.03;0.77;;;13.20;68.80;;;;;;5025048;28;20167;-43
2022/05/30 10:36:21;;;;;;;2.72;0.98;;;13.40;66.90;;;;;;5024102;28;20102;-45
2022/05/30 10:39:21;;;;;;;2.08;0.70;;;13.20;66.50;;;;;;5002818;28;20042;-44
2022/05/30 10:42:06;;;;;;;2.42;0.73;;;13.00;66.50;;;;;;4979629;28;20446;-45
2022/05/30 10:44:43;;;;;;;1.55;0.57;;;12.80;67.90;;;;;;4994623;28;20057;-45
2022/05/30 10:47:32;;;;;;;0.93;0.40;;;12.80;67.20;;;;;;4989143;28;20041;-44
2022/05/30 10:50:20;;;;;;;3.00;1.05;;;12.90;66.60;;;;;;4990575;28;20142;-44
2022/05/30 10:53:07;;;;;;;0.93;0.35;;;12.80;67.00;;;;;;4982427;28;20053;-46
2022/05/30 10:55:37;;;;;;;2.10;0.50;;;12.90;68.40;;;;;;4993614;28;20037;-44
2022/05/30 10:58:14;;;;;;;2.03;0.82;;;13.00;68.70;;;;;;5005624;28;20919;-45
2022/05/30 11:00:50;;;;;;;2.83;0.60;;;13.30;66.20;;;;;;5010854;28;20038;-46
2022/05/30 11:03:26;;;;;;;4.45;0.80;;;14.20;64.70;;;;;;5021843;28;20157;-43
2022/05/30 11:05:57;;;;;;;2.70;0.93;;;15.30;61.70;;;;;;5005794;28;20030;-44
2022/05/30 11:08:41;;;;;;;3.00;0.85;;;16.00;60.30;;;;;;5004755;28;20100;-47
2022/05/30 11:11:25;;;;;;;1.35;0.50;;;16.40;57.60;;;;;;5004628;28;20037;-45
2022/05/30 11:13:59;;;;;;;2.22;0.57;;;16.40;57.70;;;;;;5005567;28;20042;-45
2022/05/30 11:16:41;;;;;;;2.42;0.73;;;15.90;55.30;;;;;;5018858;28;20037;-44
2022/05/30 11:19:57;;;;;;;1.88;0.57;;;15.60;57.90;;;;;;5030115;28;20041;-46
2022/05/30 11:22:44;;;;;;;3.30;0.70;;;15.40;59.40;;;;;;5010652;28;20088;-44
2022/05/30 11:25:17;;;;;;;3.17;0.40;;;15.00;59.90;;;;;;5009492;28;20072;-45
2022/05/30 11:27:59;;;;;;;2.88;0.80;;;14.90;59.90;;;;;;5012353;28;20057;-46
2022/05/30 11:30:47;;;;;;;2.45;0.60;;;14.40;59.30;;;;;;5043041;28;20056;-45
2022/05/30 11:33:29;;;;;;;1.17;0.40;;;14.20;61.40;;;;;;5027963;28;20033;-47
2022/05/30 11:36:08;;;;;;;1.88;0.55;;;14.00;61.60;;;;;;5030239;28;20022;-46
2022/05/30 11:38:52;;;;;;;2.25;0.85;;;13.90;63.00;;;;;;5048091;28;20507;-46
2022/05/30 11:41:26;;;;;;;1.42;0.52;;;13.50;61.90;;;;;;5033049;28;20108;-46
2022/05/30 11:43:57;;;;;;;2.42;0.57;;;13.40;62.60;;;;;;5014260;28;20038;-45
2022/05/30 11:46:36;;;;;;;3.17;0.50;;;13.30;64.50;;;;;;5032264;28;20067;-46
2022/05/30 11:49:28;;;;;;;1.77;0.60;;;13.30;65.10;;;;;;5022628;28;20050;-44
2022/05/30 11:52:02;;;;;;;2.90;0.68;;;13.20;66.00;;;;;;5036595;28;20541;-43
2022/05/30 11:54:47;;;;;;;1.83;0.60;;;13.30;67.30;;;;;;5030259;28;20468;-44
2022/05/30 11:57:38;;;;;;;3.50;0.70;;;13.30;66.50;;;;;;5024319;28;20038;-45
2022/05/30 12:00:19;;;;;;;1.98;0.45;;;13.00;65.10;;;;;;5013248;28;20019;-45
2022/05/30 12:02:59;;;;;;;2.78;0.63;;;13.00;66.00;;;;;;5014265;28;20362;-45
2022/05/30 12:05:52;;;;;;;2.33;0.65;;;13.20;66.10;;;;;;5010995;28;20057;-44
2022/05/30 12:08:40;;;;;;;3.67;0.70;;;13.30;66.60;;;;;;5011990;28;20021;-43
2022/05/30 12:11:06;;;;;;;2.92;0.63;;;13.40;66.80;;;;;;5011056;28;20022;-46
2022/05/30 12:14:09;;;;;;;2.35;0.60;;;13.60;67.50;;;;;;5010444;28;20026;-46
2022/05/30 12:17:12;;;;;;;1.80;0.60;;;13.70;67.00;;;;;;5014939;28;20304;-45
2022/05/30 12:25:35;;;;;;;1.83;0.35;;;13.90;66.50;;;;;;5012752;28;20479;-46
2022/05/30 12:28:21;;;;;;;2.95;0.50;;;14.30;64.60;;;;;;5017946;28;20029;-48
2022/05/30 12:30:48;;;;;;;3.20;0.60;;;14.50;63.40;;;;;;5012662;28;20366;-46
2022/05/30 12:33:32;;;;;;;1.55;0.40;;;14.90;60.40;;;;;;5009721;28;20026;-44
2022/05/30 12:36:17;;;;;;;1.55;0.60;;;15.10;61.20;;;;;;5036534;28;20025;-49
2022/05/30 12:38:57;;;;;;;1.55;0.70;;;15.20;61.00;;;;;;5029339;28;20037;-49
2022/05/30 12:41:31;;;;;;;1.45;0.70;;;15.20;60.00;;;;;;5046783;28;20526;-44
2022/05/30 12:43:59;;;;;;;4.15;0.52;;;15.10;60.00;;;;;;5031141;28;20062;-47
2022/05/30 12:46:28;;;;;;;6.40;0.70;;;14.90;58.70;;;;;;5036681;28;20034;-45
2022/05/30 12:49:05;;;;;;;3.15;0.43;;;14.60;60.80;;;;;;5021908;28;20502;-44
2022/05/30 12:51:39;;;;;;;5.25;0.93;;;14.70;60.60;;;;;;5027612;28;20047;-48
2022/05/30 12:54:27;;;;;;;1.20;0.60;;;14.70;60.70;;;;;;5030112;28;20033;-45
2022/05/30 12:57:07;;;;;;;2.58;0.75;;;14.90;62.00;;;;;;5025887;28;20032;-49
2022/05/30 13:00:10;;;;;;;3.85;0.80;;;15.20;62.00;;;;;;5028030;28;20039;-44
2022/05/30 13:03:08;;;;;;;1.15;0.47;;;15.20;58.40;;;;;;5029658;28;20033;-43
2022/05/30 13:06:11;;;;;;;2.83;0.57;;;15.30;59.40;;;;;;5003202;28;20144;-46
2022/05/30 13:09:03;;;;;;;4.03;0.65;;;15.60;58.90;;;;;;5027517;28;20033;-43
2022/05/30 13:11:32;;;;;;;2.90;0.50;;;15.40;58.80;;;;;;5028378;28;20116;-46
2022/05/30 13:14:10;;;;;;;4.38;0.77;;;15.30;57.80;;;;;;5028833;28;20057;-48
2022/05/30 13:16:44;;;;;;;0.82;0.43;;;15.20;57.20;;;;;;5018736;28;20083;-44
2022/05/30 13:19:12;;;;;;;2.20;0.60;;;15.00;59.00;;;;;;5036368;28;20029;-47
2022/05/30 13:21:44;;;;;;;2.85;0.57;;;14.90;60.30;;;;;;5040608;28;20504;-49
2022/05/30 13:24:34;;;;;;;2.00;0.70;;;14.80;60.60;;;;;;5011176;28;20118;-44
2022/05/30 13:27:00;;;;;;;2.42;0.75;;;14.70;60.70;;;;;;5034183;28;20041;-44
2022/05/30 13:29:32;;;;;;;1.30;0.40;;;14.90;61.80;;;;;;5028528;28;20033;-44
2022/05/30 13:32:03;;;;;;;2.65;0.82;;;15.20;60.60;;;;;;5023456;28;20049;-48
2022/05/30 13:34:31;;;;;;;1.77;0.70;;;15.20;58.00;;;;;;5015686;28;20030;-45
2022/05/30 13:36:59;;;;;;;3.55;1.00;;;15.30;60.40;;;;;;5022532;28;20030;-44
2022/05/30 13:39:26;;;;;;;1.85;0.50;;;15.30;59.00;;;;;;5021927;28;20025;-44
2022/05/30 13:41:53;;;;;;;3.35;0.63;;;14.90;59.50;;;;;;5020692;28;20401;-45
2022/05/30 13:44:26;;;;;;;2.47;0.60;;;14.90;61.10;;;;;;5022841;28;20029;-47